Atlantic Clover — 3FVD6 — position and weather

sailwx.info

Track history (hours):
 
Tides and Currents Weather Stations Pressure Air Temp Water Temp Dewpoint Dewpoint Depression Visibility Wind Speed Wind Dir Waves Ship Positions

Atlantic Clover

Last reported at 2015-Jul-26 03:31 UTC. Time now 2015-Jul-28 15:23 UTC.
Position N 31°04' E 032°19'.

Length 180 m; draft 10 m.

Type: Cargo ship. MMSI: 371263000.

Date/timePositionNaut miles runAvg speedWind from/ knotsBaromVisibWave heightAir tempDewpointWater temp
2015-Jul-26 03:31N 31°04' E 032°19'11 8.6
2015-Jul-26 02:15N 31°14' E 032°18'4 6.4
2015-Jul-26 01:33N 31°18' E 032°21'5 1.4
2015-Jul-25 22:11N 31°23' E 032°20'0 0.0
2015-Jul-25 21:18N 31°23' E 032°20'0 0.0
2015-Jul-25 20:05N 31°23' E 032°20'0 0.0
2015-Jul-25 19:29N 31°23' E 032°20'0 0.0
2015-Jul-25 18:32N 31°23' E 032°20'0 0.0
2015-Jul-25 17:32N 31°23' E 032°20'0 0.0
2015-Jul-25 16:26N 31°23' E 032°20'0 0.0
2015-Jul-25 12:08N 31°23' E 032°20'0 0.0
2015-Jul-25 10:26N 31°23' E 032°20'0 0.2
2015-Jul-25 08:33N 31°23' E 032°20'9 8.8
2015-Jul-25 07:33N 31°30' E 032°14'1612.7
2015-Jul-25 06:19N 31°41' E 032°01'912.4
2015-Jul-25 05:33N 31°46' E 031°52'1413.6
2015-Jul-25 04:33N 31°51' E 031°37'1713.7
2015-Jul-25 03:20N 31°56' E 031°18'62613.6
2015-Jul-23 05:17N 35°12' E 019°25'1012.8
2015-Jul-23 04:33N 35°14' E 019°14'1312.9
2015-Jul-23 03:33N 35°18' E 018°59'1613.2
2015-Jul-23 02:21N 35°23' E 018°40'1113.9
2015-Jul-23 01:33N 35°26' E 018°27'1414.1
2015-Jul-23 00:33N 35°31' E 018°10'1414.0
2015-Jul-22 23:33N 35°35' E 017°54'1413.9
2015-Jul-22 22:33N 35°39' E 017°38'1613.7
2015-Jul-22 21:25N 35°44' E 017°20'1213.8
2015-Jul-22 20:33N 35°47' E 017°05'1413.9
2015-Jul-22 19:33N 35°51' E 016°49'1513.8
2015-Jul-22 18:28N 35°56' E 016°32'1213.7
2015-Jul-22 17:33N 35°60' E 016°17'1413.6
2015-Jul-22 16:33N 36°04' E 016°01'1513.4
2015-Jul-22 15:25N 36°08' E 015°43'1313.4
2015-Jul-22 14:27N 36°12' E 015°28'1413.3
2015-Jul-22 13:23N 36°16' E 015°11'1113.1
2015-Jul-22 12:33N 36°20' E 014°58'1313.5
2015-Jul-22 11:33N 36°24' E 014°42'1413.5
2015-Jul-22 10:33N 36°28' E 014°26'1313.4
2015-Jul-22 09:34N 36°32' E 014°10'1413.7
2015-Jul-22 08:33N 36°36' E 013°54'1414.1
2015-Jul-22 07:33N 36°40' E 013°37'1414.1
2015-Jul-22 06:33N 36°45' E 013°20'1414.2
2015-Jul-22 05:33N 36°49' E 013°04'1414.1
2015-Jul-22 04:33N 36°53' E 012°47'1414.2
2015-Jul-22 03:33N 36°57' E 012°30'1414.2
2015-Jul-22 02:34N 37°01' E 012°13'1514.3
2015-Jul-22 01:33N 37°06' E 011°56'1414.2
2015-Jul-22 00:33N 37°11' E 011°39'1413.9
2015-Jul-21 23:33N 37°18' E 011°24'1413.9
2015-Jul-21 22:33N 37°23' E 011°08'1414.3
2015-Jul-21 21:33N 37°27' E 010°50'1414.2
2015-Jul-21 20:33N 37°30' E 010°33'1514.4
2015-Jul-21 19:30N 37°33' E 010°14'1414.6
2015-Jul-21 18:33N 37°34' E 009°56'1414.3
2015-Jul-21 17:33N 37°35' E 009°39'1414.1
2015-Jul-21 16:33N 37°36' E 009°21'1413.9
2015-Jul-21 15:33N 37°37' E 009°03'1413.7
2015-Jul-21 14:33N 37°36' E 008°46'1413.6
2015-Jul-21 13:33N 37°34' E 008°29'1413.6
2015-Jul-21 12:33N 37°33' E 008°12'1713.5
2015-Jul-21 11:19N 37°30' E 007°51'1013.6
2015-Jul-21 10:33N 37°29' E 007°38'5613.4
2015-Jul-21 06:22N 37°22' E 006°28'7813.4
2015-Jul-21 00:33N 37°12' E 004°51'1413.7
2015-Jul-20 23:33N 37°11' E 004°34'1513.4
2015-Jul-20 22:24N 37°09' E 004°15'1213.7
2015-Jul-20 21:33N 37°07' E 004°00'1414.1
2015-Jul-20 20:33N 37°05' E 003°43'1413.8
2015-Jul-20 19:33N 37°03' E 003°26'1413.8
2015-Jul-20 18:34N 37°01' E 003°09'1413.7
2015-Jul-20 17:33N 36°59' E 002°52'1313.4
2015-Jul-20 16:33N 36°57' E 002°35'1413.4
2015-Jul-20 15:29N 36°55' E 002°17'1213.4
2015-Jul-20 14:34N 36°53' E 002°02'1413.2
2015-Jul-20 13:32N 36°51' E 001°45'1312.9
2015-Jul-20 12:33N 36°49' E 001°30'1313.1
2015-Jul-20 11:33N 36°47' E 001°13'1413.9
2015-Jul-20 10:33N 36°45' E 000°56'1414.4
2015-Jul-20 09:33N 36°42' E 000°39'1514.3
2015-Jul-20 08:32N 36°40' E 000°21'1413.5
2015-Jul-20 07:30N 36°38' E 000°03'1313.5
2015-Jul-20 06:33N 36°36' W 000°13'1414.0
2015-Jul-20 05:33N 36°34' W 000°30'1413.7
2015-Jul-20 04:34N 36°32' W 000°47'1313.3
2015-Jul-20 03:34N 36°30' W 001°03'1313.1
2015-Jul-20 02:33N 36°28' W 001°19'1313.2
2015-Jul-20 01:34N 36°26' W 001°35'1313.3
2015-Jul-20 00:33N 36°24' W 001°51'7 7.2
2015-Jul-19 23:32N 36°22' W 002°00'1 0.6
2015-Jul-19 22:28N 36°23' W 002°01'5 5.2
2015-Jul-19 21:33N 36°22' W 002°07'7 6.7
2015-Jul-19 20:33N 36°21' W 002°15'8313.7
2015-Jul-19 14:32N 36°10' W 003°57'19914.3
2015-Jul-19 00:33N 36°18' W 008°03'1413.8
2015-Jul-18 23:33N 36°22' W 008°20'1414.1
2015-Jul-18 22:33N 36°25' W 008°37'1414.1
2015-Jul-18 21:33N 36°29' W 008°54'1413.9
2015-Jul-18 20:33N 36°33' W 009°10'1313.2
2015-Jul-18 19:33N 36°40' W 009°24'1413.8
2015-Jul-18 18:33N 36°51' W 009°34'1414.3
2015-Jul-18 17:33N 37°05' W 009°38'1514.2
2015-Jul-18 16:31N 37°19' W 009°42'1313.8
2015-Jul-18 15:33N 37°32' W 009°46'1413.9
2015-Jul-18 14:33N 37°46' W 009°50'1414.3
2015-Jul-18 13:33N 37°60' W 009°54'1414.4
2015-Jul-18 12:34N 38°14' W 009°58'1414.1
2015-Jul-18 11:34N 38°27' W 010°03'1413.8
2015-Jul-18 10:33N 38°41' W 010°06'1414.1
2015-Jul-18 09:34N 38°55' W 010°06'1414.3
2015-Jul-18 08:34N 39°09' W 010°06'1413.7
2015-Jul-18 07:34N 39°23' W 010°06'1413.6
2015-Jul-18 06:32N 39°37' W 010°06'1713.6
2015-Jul-18 05:18N 39°54' W 010°06'61512.8
2015-Jul-16 05:21N 49°22' W 004°35'  
Track history (hours):
 
Tides and Currents Weather Stations Pressure Air Temp Water Temp Dewpoint Dewpoint Depression Visibility Wind Speed Wind Dir Waves Ship Positions

Atlantic Clover

Last reported at 2015-Jul-26 03:31 UTC. Time now 2015-Jul-28 15:23 UTC.
Position N 31°04' E 032°19'.

Length 180 m; draft 10 m.

Type: Cargo ship. MMSI: 371263000.

Date/timePositionNaut miles runAvg speedWind from/ knotsBaromVisibWave heightAir tempDewpointWater temp
2015-Jul-26 03:31N 31°04' E 032°19'11 8.6
2015-Jul-26 02:15N 31°14' E 032°18'4 6.4
2015-Jul-26 01:33N 31°18' E 032°21'5 1.4
2015-Jul-25 22:11N 31°23' E 032°20'0 0.0
2015-Jul-25 21:18N 31°23' E 032°20'0 0.0
2015-Jul-25 20:05N 31°23' E 032°20'0 0.0
2015-Jul-25 19:29N 31°23' E 032°20'0 0.0
2015-Jul-25 18:32N 31°23' E 032°20'0 0.0
2015-Jul-25 17:32N 31°23' E 032°20'0 0.0
2015-Jul-25 16:26N 31°23' E 032°20'0 0.0
2015-Jul-25 12:08N 31°23' E 032°20'0 0.0
2015-Jul-25 10:26N 31°23' E 032°20'0 0.2
2015-Jul-25 08:33N 31°23' E 032°20'9 8.8
2015-Jul-25 07:33N 31°30' E 032°14'1612.7
2015-Jul-25 06:19N 31°41' E 032°01'912.4
2015-Jul-25 05:33N 31°46' E 031°52'1413.6
2015-Jul-25 04:33N 31°51' E 031°37'1713.7
2015-Jul-25 03:20N 31°56' E 031°18'62613.6
2015-Jul-23 05:17N 35°12' E 019°25'1012.8
2015-Jul-23 04:33N 35°14' E 019°14'1312.9
2015-Jul-23 03:33N 35°18' E 018°59'1613.2
2015-Jul-23 02:21N 35°23' E 018°40'1113.9
2015-Jul-23 01:33N 35°26' E 018°27'1414.1
2015-Jul-23 00:33N 35°31' E 018°10'1414.0
2015-Jul-22 23:33N 35°35' E 017°54'1413.9
2015-Jul-22 22:33N 35°39' E 017°38'1613.7
2015-Jul-22 21:25N 35°44' E 017°20'1213.8
2015-Jul-22 20:33N 35°47' E 017°05'1413.9
2015-Jul-22 19:33N 35°51' E 016°49'1513.8
2015-Jul-22 18:28N 35°56' E 016°32'1213.7
2015-Jul-22 17:33N 35°60' E 016°17'1413.6
2015-Jul-22 16:33N 36°04' E 016°01'1513.4
2015-Jul-22 15:25N 36°08' E 015°43'1313.4
2015-Jul-22 14:27N 36°12' E 015°28'1413.3
2015-Jul-22 13:23N 36°16' E 015°11'1113.1
2015-Jul-22 12:33N 36°20' E 014°58'1313.5
2015-Jul-22 11:33N 36°24' E 014°42'1413.5
2015-Jul-22 10:33N 36°28' E 014°26'1313.4
2015-Jul-22 09:34N 36°32' E 014°10'1413.7
2015-Jul-22 08:33N 36°36' E 013°54'1414.1
2015-Jul-22 07:33N 36°40' E 013°37'1414.1
2015-Jul-22 06:33N 36°45' E 013°20'1414.2
2015-Jul-22 05:33N 36°49' E 013°04'1414.1
2015-Jul-22 04:33N 36°53' E 012°47'1414.2
2015-Jul-22 03:33N 36°57' E 012°30'1414.2
2015-Jul-22 02:34N 37°01' E 012°13'1514.3
2015-Jul-22 01:33N 37°06' E 011°56'1414.2
2015-Jul-22 00:33N 37°11' E 011°39'1413.9
2015-Jul-21 23:33N 37°18' E 011°24'1413.9
2015-Jul-21 22:33N 37°23' E 011°08'1414.3
2015-Jul-21 21:33N 37°27' E 010°50'1414.2
2015-Jul-21 20:33N 37°30' E 010°33'1514.4
2015-Jul-21 19:30N 37°33' E 010°14'1414.6
2015-Jul-21 18:33N 37°34' E 009°56'1414.3
2015-Jul-21 17:33N 37°35' E 009°39'1414.1
2015-Jul-21 16:33N 37°36' E 009°21'1413.9
2015-Jul-21 15:33N 37°37' E 009°03'1413.7
2015-Jul-21 14:33N 37°36' E 008°46'1413.6
2015-Jul-21 13:33N 37°34' E 008°29'1413.6
2015-Jul-21 12:33N 37°33' E 008°12'1713.5
2015-Jul-21 11:19N 37°30' E 007°51'1013.6
2015-Jul-21 10:33N 37°29' E 007°38'5613.4
2015-Jul-21 06:22N 37°22' E 006°28'7813.4
2015-Jul-21 00:33N 37°12' E 004°51'1413.7
2015-Jul-20 23:33N 37°11' E 004°34'1513.4
2015-Jul-20 22:24N 37°09' E 004°15'1213.7
2015-Jul-20 21:33N 37°07' E 004°00'1414.1
2015-Jul-20 20:33N 37°05' E 003°43'1413.8
2015-Jul-20 19:33N 37°03' E 003°26'1413.8
2015-Jul-20 18:34N 37°01' E 003°09'1413.7
2015-Jul-20 17:33N 36°59' E 002°52'1313.4
2015-Jul-20 16:33N 36°57' E 002°35'1413.4
2015-Jul-20 15:29N 36°55' E 002°17'1213.4
2015-Jul-20 14:34N 36°53' E 002°02'1413.2
2015-Jul-20 13:32N 36°51' E 001°45'1312.9
2015-Jul-20 12:33N 36°49' E 001°30'1313.1
2015-Jul-20 11:33N 36°47' E 001°13'1413.9
2015-Jul-20 10:33N 36°45' E 000°56'1414.4
2015-Jul-20 09:33N 36°42' E 000°39'1514.3
2015-Jul-20 08:32N 36°40' E 000°21'1413.5
2015-Jul-20 07:30N 36°38' E 000°03'1313.5
2015-Jul-20 06:33N 36°36' W 000°13'1414.0
2015-Jul-20 05:33N 36°34' W 000°30'1413.7
2015-Jul-20 04:34N 36°32' W 000°47'1313.3
2015-Jul-20 03:34N 36°30' W 001°03'1313.1
2015-Jul-20 02:33N 36°28' W 001°19'1313.2
2015-Jul-20 01:34N 36°26' W 001°35'1313.3
2015-Jul-20 00:33N 36°24' W 001°51'7 7.2
2015-Jul-19 23:32N 36°22' W 002°00'1 0.6
2015-Jul-19 22:28N 36°23' W 002°01'5 5.2
2015-Jul-19 21:33N 36°22' W 002°07'7 6.7
2015-Jul-19 20:33N 36°21' W 002°15'8313.7
2015-Jul-19 14:32N 36°10' W 003°57'19914.3
2015-Jul-19 00:33N 36°18' W 008°03'1413.8
2015-Jul-18 23:33N 36°22' W 008°20'1414.1
2015-Jul-18 22:33N 36°25' W 008°37'1414.1
2015-Jul-18 21:33N 36°29' W 008°54'1413.9
2015-Jul-18 20:33N 36°33' W 009°10'1313.2
2015-Jul-18 19:33N 36°40' W 009°24'1413.8
2015-Jul-18 18:33N 36°51' W 009°34'1414.3
2015-Jul-18 17:33N 37°05' W 009°38'1514.2
2015-Jul-18 16:31N 37°19' W 009°42'1313.8
2015-Jul-18 15:33N 37°32' W 009°46'1413.9
2015-Jul-18 14:33N 37°46' W 009°50'1414.3
2015-Jul-18 13:33N 37°60' W 009°54'1414.4
2015-Jul-18 12:34N 38°14' W 009°58'1414.1
2015-Jul-18 11:34N 38°27' W 010°03'1413.8
2015-Jul-18 10:33N 38°41' W 010°06'1414.1
2015-Jul-18 09:34N 38°55' W 010°06'1414.3
2015-Jul-18 08:34N 39°09' W 010°06'1413.7
2015-Jul-18 07:34N 39°23' W 010°06'1413.6
2015-Jul-18 06:32N 39°37' W 010°06'1713.6
2015-Jul-18 05:18N 39°54' W 010°06'61512.8
2015-Jul-16 05:21N 49°22' W 004°35'  

Dump ship's entire track history